Data for 04/08/2008

Time Sea-Level Adjusted Pressure Absolute Pressure Temperature Relative Humidity Dew Point   
(mb) (inHg) (mb) (inHg) (C) (F) (%) (C) (F)
00:05 1015 29.97 844 24.92 0.1 32.2 164 7.1 44.8
00:10 1015 29.97 844 24.92 0.1 32.1 164 7.1 44.7
00:15 1015 29.97 844 24.92 0 32.1 164 7 44.7
00:20 1015 29.97 844 24.92 -0 32 164 7 44.6
00:25 1015 29.97 844 24.92 -0 32 164 7 44.6
00:30 1015 29.97 844 24.92 -0.1 31.9 164 6.9 44.4
00:35 1015 29.97 844 24.92 -0.1 31.8 164 6.9 44.4
00:40 1015 29.97 844 24.92 -0.2 31.7 164 6.8 44.3
00:45 1015 29.97 844 24.92 -0.2 31.6 164 6.8 44.2
00:50 1015 29.97 844 24.92 -0.3 31.5 164 6.7 44.1
00:55 1015 29.97 844 24.92 -0.4 31.4 164 6.6 43.9
01:00 1015 29.97 844 24.92 -0.5 31.2 164 6.5 43.8
01:05 1015 29.97 844 24.92 -0.6 30.9 164 6.4 43.5
01:10 1015 29.97 844 24.92 -0.6 30.9 164 6.4 43.4
01:15 1015 29.97 844 24.92 -0.6 30.8 164 6.3 43.4
01:20 1015 29.97 845 24.95 -0.8 30.7 164 6.2 43.2
01:25 1015 29.97 845 24.95 -0.8 30.5 164 6.2 43.1
01:30 1015 29.97 845 24.95 -0.9 30.5 164 6.1 43
01:35 1015 29.97 845 24.95 -0.8 30.5 164 6.2 43.1
01:40 1015 29.97 845 24.95 -0.8 30.5 164 6.2 43.1
01:45 1015 29.97 845 24.95 -0.8 30.6 164 6.2 43.1
01:50 1015 29.97 845 24.95 -0.8 30.5 164 6.1 43.1
01:55 1015 29.97 845 24.95 -0.9 30.4 164 6.1 42.9
02:00 1015 29.97 845 24.95 -0.8 30.5 164 6.1 43
02:05 1015 29.97 845 24.95 -0.9 30.4 164 6.1 43
02:10 1015 29.97 845 24.95 -0.8 30.5 164 6.2 43.1
02:15 1015 29.97 844 24.92 -0.8 30.5 164 6.1 43
02:20 1015 29.97 844 24.92 -0.9 30.4 164 6.1 42.9
02:25 1015 29.97 844 24.92 -1 30.1 164 5.9 42.7
02:30 1015 29.97 844 24.92 -1.1 30.1 164 5.9 42.6
02:35 1015 29.97 844 24.92 -1.2 29.8 164 5.7 42.3
02:40 1015 29.97 844 24.92 -1.3 29.7 164 5.7 42.2
02:45 1015 29.97 844 24.92 -1.3 29.6 164 5.6 42.1
02:50 1015 29.97 844 24.92 -1.4 29.5 164 5.6 42
02:55 1015 29.97 844 24.92 -1.4 29.5 164 5.5 42
03:00 1015 29.97 844 24.92 -1.4 29.5 164 5.5 42
03:05 1015 29.97 844 24.92 -1.5 29.3 164 5.4 41.8
03:10 1015 29.97 844 24.92 -1.6 29.1 164 5.3 41.6
03:15 1015 29.97 844 24.92 -1.7 29 164 5.3 41.5
03:20 1015 29.97 844 24.92 -1.7 28.9 164 5.2 41.4
03:25 1015 29.97 844 24.92 -1.7 29 164 5.3 41.5
03:30 1015 29.97 844 24.92 -1.7 28.9 164 5.2 41.4
03:35 1015 29.97 844 24.92 -1.7 28.9 164 5.2 41.4
03:40 1015 29.97 844 24.92 -1.8 28.8 165 5.2 41.3
03:45 1015 29.97 844 24.92 -1.8 28.7 164 5.1 41.2
03:50 1015 29.97 844 24.92 -1.8 28.7 164 5.1 41.2
03:55 1015 29.97 844 24.92 -1.9 28.6 164 5 41
04:00 1015 29.97 844 24.92 -1.9 28.5 164 5 41
04:05 1015 29.97 844 24.92 -2 28.3 164 4.9 40.8
04:10 1015 29.97 844 24.92 -2.1 28.2 164 4.8 40.6
04:15 1015 29.97 844 24.92 -2.2 28.1 164 4.7 40.5
04:20 1015 29.97 844 24.92 -2.2 28.1 165 4.7 40.5
04:25 1015 29.97 844 24.92 -2.3 27.9 164 4.7 40.4
04:30 1015 29.97 844 24.92 -2.3 27.9 165 4.6 40.4
04:35 1015 29.97 844 24.92 -2.3 27.9 164 4.6 40.3
04:40 1015 29.97 844 24.92 -2.3 27.9 164 4.6 40.3
04:45 1015 29.97 845 24.95 -2.3 27.8 165 4.6 40.2
04:50 1015 29.97 845 24.95 -2.3 27.8 165 4.6 40.3
04:55 1015 29.97 845 24.95 -2.3 27.8 165 4.6 40.3
05:00 1015 29.97 845 24.95 -2.3 27.9 164 4.6 40.3
05:05 1015 29.97 844 24.92 -2.2 28 165 4.7 40.4
05:10 1015 29.97 845 24.95 -2.2 28.1 164 4.7 40.5
05:15 1015 29.97 845 24.95 -2.2 28 164 4.7 40.4
05:20 1015 29.97 845 24.95 -2.3 27.9 165 4.6 40.4
05:25 1015 29.97 845 24.95 -2.3 27.8 165 4.6 40.3
05:30 1015 29.97 845 24.95 -2.3 27.8 165 4.6 40.2
05:35 1015 29.97 845 24.95 -2.4 27.8 165 4.6 40.2
05:40 1015 29.97 845 24.95 -2.4 27.7 164 4.5 40.2
05:45 1015 29.97 845 24.95 -2.4 27.8 164 4.5 40.2
05:50 1015 29.97 845 24.95 -2.4 27.7 164 4.5 40.1
05:55 1015 29.97 845 24.95 -2.4 27.7 165 4.5 40.2
06:00 1015 29.97 845 24.95 -2.4 27.7 165 4.5 40.1
06:05 1015 29.97 845 24.95 -2.4 27.7 164 4.5 40.1
06:10 1015 29.97 845 24.95 -2.4 27.6 165 4.5 40.1
06:15 1015 29.97 845 24.95 -2.4 27.6 165 4.5 40.1
06:20 1015 29.97 845 24.95 -2.4 27.7 165 4.5 40.2
06:25 1016 30 845 24.95 -2.3 27.8 165 4.6 40.2
06:30 1016 30 845 24.95 -2.3 27.8 165 4.6 40.2
06:35 1016 30 845 24.95 -2.4 27.8 165 4.6 40.2
06:40 1016 30 845 24.95 -2.4 27.7 165 4.5 40.2
06:45 1016 30 845 24.95 -2.6 27.3 165 4.3 39.8
06:50 1016 30 845 24.95 -2.8 26.9 165 4.1 39.3
06:55 1016 30 845 24.95 -3 26.6 165 3.9 39
07:00 1016 30 845 24.95 -3 26.5 165 3.8 38.9
07:05 1016 30 845 24.95 -3.1 26.5 165 3.8 38.9
07:10 1016 30 845 24.95 -3 26.5 165 3.9 38.9
07:15 1016 30 845 24.95 -3 26.6 165 3.9 39
07:20 1016 30 845 24.95 -3 26.7 165 3.9 39
07:25 1016 30 845 24.95 -2.9 26.8 165 4 39.2
07:30 1016 30 845 24.95 -2.7 27.1 165 4.2 39.5
07:35 1016 30 845 24.95 -2.6 27.3 165 4.3 39.8
07:40 1016 30 845 24.95 -2.4 27.7 164 4.5 40.1
07:45 1016 30 845 24.95 -2.4 27.7 165 4.6 40.2
07:50 1016 30 845 24.95 -2.4 27.6 164 4.5 40.1
07:55 1016 30 845 24.95 -2.3 27.8 165 4.6 40.3
08:00 1016 30 845 24.95 -2.2 28.1 165 4.7 40.5
08:05 1016 30 845 24.95 -2.1 28.2 165 4.8 40.6
08:10 1016 30 845 24.95 -2 28.5 164 5 40.9
08:15 1016 30 845 24.95 -2.1 28.3 164 4.9 40.7
08:20 1016 30 845 24.95 -2.4 27.7 165 4.5 40.2
08:25 1015 29.97 845 24.95 -2.4 27.6 165 4.5 40.1
08:30 1015 29.97 845 24.95 -2.4 27.6 165 4.5 40
08:35 1015 29.97 845 24.95 -2.3 27.9 164 4.7 40.4
08:40 1015 29.97 845 24.95 -2.1 28.3 165 4.9 40.8
08:45 1015 29.97 845 24.95 -2.1 28.2 164 4.8 40.7
08:50 1015 29.97 845 24.95 -1.9 28.5 164 5 41
08:55 1015 29.97 845 24.95 -1.4 29.4 164 5.5 41.9
09:00 1015 29.97 845 24.95 -1.3 29.7 164 5.7 42.2
09:05 1015 29.97 845 24.95 -1.5 29.2 164 5.4 41.7
09:10 1015 29.97 845 24.95 -1.7 29 164 5.2 41.4
09:15 1015 29.97 844 24.92 -1.6 29.1 164 5.3 41.6
09:20 1015 29.97 844 24.92 -1.5 29.3 164 5.5 41.8
09:25 1015 29.97 844 24.92 -1.4 29.5 164 5.5 42
09:30 1015 29.97 844 24.92 -0.9 30.3 164 6 42.8
09:35 1015 29.97 844 24.92 -0.9 30.4 164 6.1 43
09:40 1015 29.97 844 24.92 -0.9 30.5 164 6.1 43
09:45 1015 29.97 844 24.92 -0.5 31.1 164 6.5 43.7
09:50 1015 29.97 844 24.92 -0.3 31.5 164 6.7 44.1
09:55 1015 29.97 844 24.92 -0.2 31.6 164 6.8 44.2
10:00 1015 29.97 844 24.92 -0.2 31.7 164 6.8 44.3
10:05 1015 29.97 844 24.92 0.5 32.9 164 7.5 45.5
10:10 1015 29.97 844 24.92 0.9 33.7 164 8 46.4
10:15 1015 29.97 844 24.92 0.8 33.5 164 7.9 46.2
10:20 1015 29.97 844 24.92 0.5 32.8 164 7.5 45.5
10:25 1015 29.97 844 24.92 1 33.8 164 8 46.5
10:30 1015 29.97 844 24.92 1.1 34 164 8.2 46.7
10:35 1015 29.97 844 24.92 1.3 34.4 164 8.4 47.1
10:40 1015 29.97 844 24.92 1.3 34.3 164 8.3 47
10:45 1015 29.97 844 24.92 0.4 32.6 164 7.4 45.3
10:50 1015 29.97 844 24.92 1 33.8 164 8.1 46.5
10:55 1015 29.97 844 24.92 1.7 35.1 79 -1.6 29.1
11:00 1015 29.97 844 24.92 0.8 33.4 80 -2.3 27.9
11:05 1015 29.97 844 24.92 -0.1 31.8 82 -2.9 26.8
11:10 1015 29.97 844 24.92 -0.2 31.7 84 -2.6 27.4
11:15 1015 29.97 844 24.92 1.7 35.1 75 -2.2 28.1
11:20 1015 29.97 844 24.92 1.3 34.4 75 -2.6 27.3
11:25 1015 29.97 844 24.92 0.7 33.3 76 -3.1 26.3
11:30 1015 29.97 844 24.92 1 33.9 75 -3 26.6
11:35 1015 29.97 844 24.92 2.1 35.8 69 -2.9 26.8
11:40 1015 29.97 844 24.92 1.7 35.1 70 -3.2 26.2
11:45 1015 29.97 844 24.92 1.2 34.2 72 -3.2 26.2
11:50 1015 29.97 844 24.92 1.4 34.6 71 -3.4 26
11:55 1015 29.97 844 24.92 2.9 37.2 66 -2.9 26.9
12:00 1014 29.94 844 24.92 3.7 38.6 61 -3.1 26.5
12:05 1014 29.94 844 24.92 3.2 37.8 62 -3.4 25.8
12:10 1014 29.94 843 24.89 3.2 37.8 62 -3.4 25.8
12:15 1014 29.94 843 24.89 1.9 35.5 64 -4.2 24.5
12:20 1014 29.94 843 24.89 1.7 35.1 62 -4.8 23.4
12:25 1014 29.94 843 24.89 2.2 36 60 -4.8 23.4
12:30 1014 29.94 843 24.89 2.1 35.8 62 -4.3 24.2
12:35 1014 29.94 843 24.89 3.1 37.6 60 -4 24.9
12:40 1014 29.94 843 24.89 4.6 40.3 54 -3.9 24.9
12:45 1014 29.94 843 24.89 4.7 40.5 54 -3.9 25
12:50 1014 29.94 843 24.89 5.2 41.4 51 -4.1 24.7
12:55 1014 29.94 843 24.89 3.7 38.7 56 -4.3 24.3
13:00 1014 29.94 843 24.89 3.1 37.5 58 -4.5 24
13:05 1014 29.94 843 24.89 3 37.4 57 -4.6 23.7
13:10 1014 29.94 843 24.89 3.8 38.8 57 -4 24.7
13:15 1014 29.94 843 24.89 4.9 40.8 53 -3.8 25.2
13:20 1014 29.94 843 24.89 4.8 40.6 54 -3.8 25.1
13:25 1014 29.94 843 24.89 4.8 40.7 52 -4.2 24.5
13:30 1013 29.91 843 24.89 4.5 40 51 -4.8 23.4
13:35 1013 29.91 843 24.89 4.1 39.4 54 -4.3 24.3
13:40 1013 29.91 843 24.89 4.8 40.6 52 -4.3 24.2
13:45 1013 29.91 843 24.89 4.7 40.4 52 -4.3 24.2
13:50 1013 29.91 842 24.86 5 41 49 -4.7 23.5
13:55 1013 29.91 842 24.86 4.2 39.5 52 -4.8 23.3
14:00 1013 29.91 842 24.86 3.5 38.4 54 -4.9 23.2
14:05 1013 29.91 842 24.86 3.9 39.1 55 -4.3 24.3
14:10 1013 29.91 842 24.86 4.9 40.8 51 -4.3 24.3
14:15 1013 29.91 842 24.86 4.7 40.5 50 -4.7 23.5
14:20 1013 29.91 842 24.86 4.7 40.5 50 -4.8 23.3
14:25 1013 29.91 842 24.86 4.6 40.3 52 -4.5 23.9
14:30 1013 29.91 842 24.86 4.2 39.5 53 -4.6 23.8
14:35 1013 29.91 842 24.86 5.2 41.3 48 -4.9 23.2
14:40 1013 29.91 842 24.86 5.3 41.6 47 -5.1 22.8
14:45 1013 29.91 842 24.86 5.6 42 45 -5.5 22
14:50 1013 29.91 842 24.86 5.6 42.1 45 -5.3 22.4
14:55 1013 29.91 842 24.86 5.9 42.6 45 -5.2 22.6
15:00 1013 29.91 842 24.86 6.1 42.9 41 -6.2 20.8
15:05 1013 29.91 842 24.86 6.8 44.3 41 -5.4 22.4
15:10 1013 29.91 842 24.86 6.7 44 42 -5.2 22.7
15:15 1012 29.88 842 24.86 6.4 43.5 44 -5 23
15:20 1012 29.88 842 24.86 5.2 41.3 46 -5.5 22.1
15:25 1012 29.88 842 24.86 5.1 41.2 50 -4.4 24.1
15:30 1012 29.88 842 24.86 5.2 41.4 50 -4.4 24.1
15:35 1012 29.88 841 24.83 5.4 41.6 47 -5.1 22.9
15:40 1012 29.88 841 24.83 5.7 42.2 46 -5 23
15:45 1012 29.88 841 24.83 6.4 43.6 39 -6.5 20.3
15:50 1012 29.88 841 24.83 6.2 43.2 40 -6.3 20.7
15:55 1012 29.88 841 24.83 6.4 43.5 37 -7.2 19.1
16:00 1012 29.88 841 24.83 5.8 42.4 38 -7.5 18.5
16:05 1012 29.88 841 24.83 5.6 42.2 40 -6.9 19.6
16:10 1012 29.88 841 24.83 5.6 42.1 38 -7.6 18.2
16:15 1012 29.88 841 24.83 6.1 43 38 -7.2 19
16:20 1012 29.88 841 24.83 6 42.8 38 -7.1 19.1
16:25 1012 29.88 841 24.83 5.5 41.9 39 -7.5 18.5
16:30 1012 29.88 841 24.83 5.1 41.1 37 -8.5 16.7
16:35 1012 29.88 841 24.83 5.3 41.5 35 -8.8 16.1
16:40 1012 29.88 841 24.83 5.4 41.8 36 -8.4 16.9
16:45 1012 29.88 841 24.83 5.8 42.4 36 -8.2 17.2
16:50 1012 29.88 841 24.83 5.2 41.4 38 -8.1 17.5
16:55 1012 29.88 841 24.83 5.8 42.4 35 -8.4 16.9
17:00 1012 29.88 841 24.83 5 40.9 40 -7.5 18.6
17:05 1012 29.88 841 24.83 4.5 40 41 -7.8 18
17:10 1012 29.88 841 24.83 5.3 41.5 39 -7.5 18.5
17:15 1012 29.88 841 24.83 6.2 43.2 36 -7.8 18
17:20 1012 29.88 841 24.83 5.4 41.7 36 -8.5 16.8
17:25 1012 29.88 841 24.83 4.4 39.9 42 -7.5 18.5
17:30 1012 29.88 841 24.83 3.8 38.8 42 -8 17.7
17:35 1012 29.88 841 24.83 3.5 38.3 43 -7.8 18
17:40 1011 29.85 841 24.83 4.1 39.4 41 -8.1 17.4
17:45 1011 29.85 841 24.83 4.4 39.9 41 -7.7 18.2
17:50 1011 29.85 841 24.83 4.5 40.1 41 -7.5 18.4
17:55 1011 29.85 841 24.83 4.4 39.9 40 -8 17.6
18:00 1011 29.85 841 24.83 4.4 39.9 41 -7.7 18.1
18:05 1011 29.85 841 24.83 4.2 39.6 42 -7.6 18.4
18:10 1011 29.85 841 24.83 4.5 40.1 42 -7.2 19.1
18:15 1011 29.85 841 24.83 4.9 40.8 42 -7.1 19.3
18:20 1011 29.85 841 24.83 4.7 40.5 43 -6.8 19.7
18:25 1011 29.85 841 24.83 4.4 39.9 42 -7.3 18.8
18:30 1011 29.85 841 24.83 4.1 39.3 43 -7.3 18.9
18:35 1011 29.85 841 24.83 3.9 39.1 44 -7.3 18.8
18:40 1011 29.85 841 24.83 3.9 39 43 -7.5 18.4
18:45 1011 29.85 841 24.83 3.6 38.4 44 -7.5 18.5
18:50 1011 29.85 841 24.83 3.7 38.6 45 -7.2 19.1
18:55 1011 29.85 841 24.83 3.6 38.4 45 -7.3 18.8
19:00 1011 29.85 840 24.81 3.5 38.3 48 -6.5 20.3
19:05 1011 29.85 840 24.81 3.4 38.2 53 -5.2 22.6
19:10 1011 29.85 840 24.81 3.4 38.1 57 -4.3 24.2
19:15 1011 29.85 840 24.81 3.2 37.8 58 -4.2 24.4
19:20 1011 29.85 840 24.81 3.1 37.6 60 -4 24.8
19:25 1011 29.85 840 24.81 3.1 37.6 61 -3.7 25.3
19:30 1011 29.85 840 24.81 3.3 37.9 61 -3.6 25.5
19:35 1011 29.85 840 24.81 3.1 37.6 61 -3.6 25.5
19:40 1011 29.85 840 24.81 2.8 37 63 -3.6 25.5
19:45 1011 29.85 840 24.81 2.6 36.8 64 -3.4 25.9
19:50 1011 29.85 840 24.81 2.5 36.5 65 -3.4 26
19:55 1011 29.85 840 24.81 2.3 36.2 66 -3.3 26
20:00 1011 29.85 840 24.81 2.3 36.2 68 -3.1 26.5
20:05 1011 29.85 840 24.81 2.2 35.9 69 -2.8 26.9
20:10 1011 29.85 840 24.81 1.8 35.3 71 -2.9 26.8
20:15 1011 29.85 840 24.81 1.7 35.1 72 -2.8 27
20:20 1011 29.85 840 24.81 1.5 34.6 74 -2.7 27.1
20:25 1011 29.85 840 24.81 1.2 34.2 75 -2.8 27
20:30 1011 29.85 841 24.83 1 33.9 76 -2.8 26.9
20:35 1011 29.85 840 24.81 0.9 33.6 75 -3 26.5
20:40 1011 29.85 840 24.81 0.9 33.6 76 -2.8 27
20:45 1011 29.85 841 24.83 0.8 33.5 77 -2.7 27.2
20:50 1011 29.85 841 24.83 0.7 33.3 78 -2.7 27.2
20:55 1011 29.85 841 24.83 0.6 33.1 79 -2.6 27.3
21:00 1011 29.85 841 24.83 0.5 32.9 79 -2.7 27.2
21:05 1011 29.85 841 24.83 0.5 32.8 80 -2.6 27.3
21:10 1011 29.85 841 24.83 0.3 32.6 79 -2.9 26.7
21:15 1011 29.85 841 24.83 0.1 32.3 79 -3.1 26.4
21:20 1011 29.85 841 24.83 0.1 32.2 79 -3.1 26.4
21:25 1011 29.85 841 24.83 0.1 32.1 79 -3.1 26.4
21:30 1011 29.85 841 24.83 -0.1 31.9 80 -3.2 26.3
21:35 1011 29.85 841 24.83 -0.1 31.8 80 -3.2 26.2
21:40 1011 29.85 841 24.83 -0.2 31.7 80 -3.2 26.2
21:45 1011 29.85 841 24.83 -0.3 31.5 80 -3.3 26.1
21:50 1011 29.85 841 24.83 -0.2 31.6 81 -3.2 26.3
21:55 1011 29.85 841 24.83 -0.2 31.6 81 -3.1 26.3
22:00 1011 29.85 841 24.83 -0.3 31.5 81 -3.1 26.4
22:05 1011 29.85 840 24.81 -0.3 31.4 81 -3.2 26.2
22:10 1011 29.85 840 24.81 -0.4 31.2 81 -3.3 26.1
22:15 1011 29.85 840 24.81 -0.4 31.2 81 -3.3 26
22:20 1011 29.85 840 24.81 -0.5 31.1 81 -3.4 25.9
22:25 1011 29.85 840 24.81 -0.4 31.2 81 -3.4 26
22:30 1011 29.85 840 24.81 -0.4 31.3 80 -3.4 26
22:35 1011 29.85 840 24.81 -0.5 31.1 81 -3.4 25.8
22:40 1011 29.85 840 24.81 -0.8 30.6 81 -3.6 25.5
22:45 1011 29.85 840 24.81 -0.7 30.7 81 -3.7 25.4
22:50 1011 29.85 840 24.81 -0.7 30.8 80 -3.6 25.5
22:55 1011 29.85 840 24.81 -0.7 30.7 80 -3.7 25.4
23:00 1011 29.85 840 24.81 -0.7 30.8 80 -3.7 25.4
23:05 1011 29.85 840 24.81 -0.7 30.8 80 -3.7 25.4
23:10 1011 29.85 840 24.81 -0.7 30.8 79 -3.8 25.1
23:15 1011 29.85 840 24.81 -0.6 31 78 -3.9 25
23:20 1011 29.85 840 24.81 -0.6 31 78 -4 24.8
23:25 1011 29.85 840 24.81 -0.6 31 77 -4 24.8
23:30 1011 29.85 840 24.81 -0.6 30.9 77 -4.2 24.5
23:35 1011 29.85 840 24.81 -0.6 31 77 -4.1 24.6
23:40 1011 29.85 840 24.81 -0.6 30.9 77 -4.1 24.7
23:45 1011 29.85 840 24.81 -0.9 30.3 78 -4.2 24.4
23:50 1011 29.85 840 24.81 -1.1 30.1 79 -4.3 24.3
23:55 1011 29.85 840 24.81 -1.2 29.9 80 -4.2 24.4
24:00 1011 29.85 840 24.81 -1.1 30 79 -4.3 24.3